Terminal Aerodrome Forecast
Issued by NWS

Home | Current Version | Previous Version | Text Only | Print | Product List | Glossary On
Versions: 1 2 3 4 5 6 7 8 9 10 11 12 13 14 15 16 17
000
FTUS43 KLSX 191000 AAA
TAFCPS
TAF AMD
KCPS 191034Z 1911/2006 00000KT 1SM BR SCT250
     FM191100 00000KT P6SM SCT250
      TEMPO 1911/1912 2SM BR
     FM191600 08007KT P6SM SCT050=

USA.gov is the U.S. government's official web portal to all federal, state and local government web resources and services.